Time;durP1;ratioP1;P1;durP2;ratioP2;P2;SDS_P1;SDS_P2;PMS_P1;PMS_P2;Temp;Humidity;BMP_temperature;BMP_pressure;BME280_temperature;BME280_humidity;BME280_pressure;Samples;Min_cycle;Max_cycle;Signal;HPM_P1;HPM_P2
2021/12/25 00:01:47;;;;;;;3.58;1.23;;;0.10;99.00;;;;;;5112590;28;20042;-70
2021/12/25 00:04:13;;;;;;;1.92;1.02;;;0.20;97.00;;;;;;5113623;28;20043;-70
2021/12/25 00:06:38;;;;;;;1.85;0.88;;;0.00;96.30;;;;;;5113740;28;20048;-70
2021/12/25 00:09:05;;;;;;;2.90;0.90;;;0.10;95.50;;;;;;5112646;28;20070;-71
2021/12/25 00:11:31;;;;;;;10.00;1.30;;;0.00;95.90;;;;;;5114231;28;20036;-70
2021/12/25 00:13:56;;;;;;;4.65;1.00;;;0.00;96.10;;;;;;5113645;28;20559;-70
2021/12/25 00:16:22;;;;;;;4.05;1.00;;;0.00;96.80;;;;;;5099487;28;20051;-70
2021/12/25 00:18:48;;;;;;;1.50;1.00;;;-0.10;97.10;;;;;;5117964;28;20495;-70
2021/12/25 00:21:13;;;;;;;5.63;1.00;;;-0.10;97.40;;;;;;5116517;28;20039;-70
2021/12/25 00:23:39;;;;;;;2.92;1.15;;;-0.20;97.50;;;;;;5117960;28;20111;-70
2021/12/25 00:26:25;;;;;;;2.60;0.70;;;-0.20;97.50;;;;;;5117624;28;20036;-70
2021/12/25 00:29:02;;;;;;;5.03;0.90;;;-0.20;96.10;;;;;;5116408;28;20040;-70
2021/12/25 00:31:46;;;;;;;6.05;0.90;;;-0.30;96.10;;;;;;5116519;28;20036;-70
2021/12/25 00:34:14;;;;;;;2.47;0.88;;;-0.30;95.00;;;;;;5117622;28;20562;-70
2021/12/25 00:36:40;;;;;;;3.00;0.70;;;-0.40;95.30;;;;;;5099195;28;20382;-71
2021/12/25 00:39:05;;;;;;;5.15;1.35;;;-0.40;95.20;;;;;;5116455;28;20031;-70
2021/12/25 00:41:31;;;;;;;3.53;0.85;;;-0.50;94.60;;;;;;5117448;28;20043;-71
2021/12/25 00:43:57;;;;;;;1.70;1.13;;;-0.30;93.50;;;;;;5117367;28;20491;-70
2021/12/25 00:46:22;;;;;;;5.05;1.23;;;-0.30;92.60;;;;;;5116924;28;20047;-70
2021/12/25 00:48:48;;;;;;;2.88;0.80;;;-0.40;93.10;;;;;;5116053;28;20443;-70
2021/12/25 00:51:14;;;;;;;3.75;1.13;;;-0.40;92.20;;;;;;5117244;27;20043;-70
2021/12/25 00:53:40;;;;;;;3.38;1.23;;;-0.40;91.40;;;;;;5115893;28;20039;-70
2021/12/25 00:56:05;;;;;;;2.50;0.60;;;-0.40;90.80;;;;;;5116817;28;20039;-71
2021/12/25 00:58:31;;;;;;;4.35;0.95;;;-0.60;91.10;;;;;;5117257;28;20035;-70
2021/12/25 01:00:57;;;;;;;2.60;0.75;;;-0.60;91.30;;;;;;5117392;28;20476;-70
2021/12/25 01:03:22;;;;;;;2.50;0.75;;;-0.70;91.00;;;;;;5117455;28;20035;-70
2021/12/25 01:05:48;;;;;;;6.93;1.38;;;-0.70;90.50;;;;;;5117057;28;20040;-70
2021/12/25 01:08:14;;;;;;;1.02;0.63;;;-0.70;90.50;;;;;;5115676;28;20372;-70
2021/12/25 01:10:39;;;;;;;3.10;0.45;;;-0.70;90.10;;;;;;5117402;28;20043;-71
2021/12/25 01:15:47;;;;;;;2.53;0.60;;;-0.80;90.10;;;;;;5115248;28;20047;-70
2021/12/25 01:34:12;;;;;;;3.05;0.80;;;-1.00;90.10;;;;;;5116602;28;20035;-70
2021/12/25 01:39:23;;;;;;;1.63;0.70;;;-1.00;89.50;;;;;;5116872;28;20408;-70
2021/12/25 01:49:52;;;;;;;3.38;0.82;;;-1.20;89.80;;;;;;5115371;28;20043;-70
2021/12/25 01:52:24;;;;;;;2.22;1.15;;;-1.00;88.70;;;;;;5114950;28;20050;-70
2021/12/25 01:54:50;;;;;;;4.32;0.90;;;-1.20;88.30;;;;;;5116494;28;20039;-70
2021/12/25 01:57:16;;;;;;;3.47;0.60;;;-1.20;89.40;;;;;;5114480;28;20459;-70
2021/12/25 01:59:42;;;;;;;4.05;1.13;;;-1.10;89.10;;;;;;5114851;28;20050;-70
2021/12/25 02:02:07;;;;;;;3.17;0.60;;;-1.10;88.80;;;;;;5115126;28;20043;-70
2021/12/25 02:04:33;;;;;;;3.15;1.08;;;-1.10;89.50;;;;;;5116334;28;20483;-70
2021/12/25 02:06:59;;;;;;;1.77;1.02;;;-1.30;89.00;;;;;;5114375;28;20043;-70
2021/12/25 02:09:24;;;;;;;1.15;0.43;;;-1.30;88.90;;;;;;5114963;28;20104;-70
2021/12/25 02:11:51;;;;;;;2.28;0.98;;;-1.20;88.30;;;;;;5114560;28;20044;-70
2021/12/25 02:14:17;;;;;;;2.28;0.38;;;-1.20;88.70;;;;;;5114612;28;20043;-70
2021/12/25 02:16:55;;;;;;;3.28;0.88;;;-1.30;87.40;;;;;;5114283;28;20051;-70
2021/12/25 02:19:33;;;;;;;1.45;0.85;;;-1.30;87.20;;;;;;5115731;28;20139;-70
2021/12/25 02:22:01;;;;;;;0.82;0.57;;;-1.40;87.80;;;;;;5115773;28;20040;-70
2021/12/25 02:24:27;;;;;;;2.35;0.70;;;-1.60;87.00;;;;;;5115519;28;20047;-70
2021/12/25 02:26:53;;;;;;;1.40;0.50;;;-1.60;88.40;;;;;;5113746;28;20058;-70
2021/12/25 02:29:18;;;;;;;1.90;0.73;;;-1.60;88.90;;;;;;5115745;28;20061;-70
2021/12/25 02:31:44;;;;;;;2.30;0.90;;;-1.50;88.10;;;;;;5114046;28;20062;-70
2021/12/25 02:34:10;;;;;;;2.85;0.70;;;-1.40;86.80;;;;;;5113947;28;20122;-70
2021/12/25 02:36:36;;;;;;;0.80;0.80;;;-1.40;86.70;;;;;;5114931;28;20042;-70
2021/12/25 02:39:02;;;;;;;1.48;0.50;;;-1.50;86.00;;;;;;5115141;28;20058;-71
2021/12/25 02:41:27;;;;;;;3.05;0.90;;;-1.60;85.90;;;;;;5114301;28;20039;-70
2021/12/25 02:43:54;;;;;;;2.60;1.00;;;-1.50;85.90;;;;;;5114144;28;20039;-70
2021/12/25 02:46:19;;;;;;;3.95;0.70;;;-1.40;85.60;;;;;;5114667;28;20514;-70
2021/12/25 02:48:45;;;;;;;2.17;0.90;;;-1.50;84.60;;;;;;5113783;28;20036;-70
2021/12/25 02:51:12;;;;;;;1.55;0.85;;;-1.60;83.60;;;;;;5115247;28;20043;-70
2021/12/25 02:53:39;;;;;;;1.67;0.60;;;-1.60;84.20;;;;;;5113661;28;20506;-70
2021/12/25 02:56:06;;;;;;;3.95;0.65;;;-1.50;84.00;;;;;;5113271;28;20055;-70
2021/12/25 02:58:31;;;;;;;1.23;0.60;;;-1.50;83.80;;;;;;5114712;28;20140;-70
2021/12/25 03:01:00;;;;;;;2.40;0.60;;;-1.60;83.00;;;;;;5115383;28;20036;-70
2021/12/25 03:03:27;;;;;;;4.43;0.70;;;-1.60;82.30;;;;;;5114843;28;20093;-70
2021/12/25 03:05:52;;;;;;;1.83;0.60;;;-1.70;82.90;;;;;;5114475;28;20088;-70
2021/12/25 03:08:19;;;;;;;3.47;0.80;;;-1.70;82.40;;;;;;5114575;28;20440;-70
2021/12/25 03:10:45;;;;;;;2.38;0.60;;;-1.60;81.20;;;;;;5114864;28;20399;-70
2021/12/25 03:15:46;;;;;;;4.05;0.50;;;-1.50;79.00;;;;;;5114221;28;20123;-70
2021/12/25 03:18:12;;;;;;;2.10;0.60;;;-1.60;79.90;;;;;;5096151;28;20122;-70
2021/12/25 03:20:44;;;;;;;1.73;0.50;;;-1.60;80.50;;;;;;5114422;28;20038;-70
2021/12/25 03:23:13;;;;;;;1.48;0.80;;;-1.60;81.00;;;;;;5114429;28;20078;-70
2021/12/25 03:25:41;;;;;;;3.65;0.70;;;-1.70;81.30;;;;;;5114412;28;20075;-70
2021/12/25 03:28:06;;;;;;;0.88;0.50;;;-1.70;82.00;;;;;;5113500;28;20044;-70
2021/12/25 03:30:36;;;;;;;1.50;0.50;;;-1.60;81.40;;;;;;5113715;28;20039;-70
2021/12/25 03:33:03;;;;;;;1.92;0.63;;;-1.80;81.70;;;;;;5114555;28;20452;-70
2021/12/25 03:35:29;;;;;;;1.25;0.82;;;-1.80;81.90;;;;;;5114257;28;20050;-70
2021/12/25 03:37:55;;;;;;;3.00;0.70;;;-1.80;81.40;;;;;;5113926;28;20036;-70
2021/12/25 03:40:20;;;;;;;0.60;0.50;;;-1.80;81.80;;;;;;5114174;28;20036;-70
2021/12/25 03:42:46;;;;;;;5.05;0.98;;;-1.80;82.10;;;;;;5113983;28;20044;-70
2021/12/25 03:45:12;;;;;;;2.53;0.60;;;-1.80;81.80;;;;;;5114543;28;20047;-70
2021/12/25 03:47:39;;;;;;;4.35;1.15;;;-2.00;82.50;;;;;;5106625;28;20028;-70
2021/12/25 03:58:17;;;;;;;0.52;0.47;;;-2.00;82.40;;;;;;5092158;28;20060;-70
2021/12/25 04:00:45;;;;;;;16.50;2.38;;;-2.00;82.90;;;;;;5093906;28;20047;-70
2021/12/25 04:03:19;;;;;;;3.58;0.63;;;-2.00;82.60;;;;;;5093594;28;20036;-70
2021/12/25 04:05:47;;;;;;;3.22;0.50;;;-2.00;83.00;;;;;;5091791;28;20044;-70
2021/12/25 04:08:15;;;;;;;3.20;0.60;;;-2.10;82.20;;;;;;5093458;28;20036;-70
2021/12/25 04:10:47;;;;;;;0.77;0.60;;;-2.20;82.30;;;;;;5092062;28;20387;-70
2021/12/25 04:13:15;;;;;;;0.63;0.35;;;-2.00;83.10;;;;;;5092714;28;20040;-70
2021/12/25 04:15:42;;;;;;;1.73;0.50;;;-2.20;83.10;;;;;;5093130;28;20040;-70
2021/12/25 04:18:08;;;;;;;3.22;0.50;;;-2.20;83.40;;;;;;5093447;28;20115;-70
2021/12/25 04:20:35;;;;;;;4.68;0.50;;;-2.10;83.30;;;;;;5091975;28;20044;-70
2021/12/25 04:23:06;;;;;;;2.03;0.70;;;-2.00;82.60;;;;;;5092078;28;20434;-70
2021/12/25 04:25:34;;;;;;;1.30;0.60;;;-2.10;82.40;;;;;;5091948;28;20464;-71
2021/12/25 04:28:09;;;;;;;0.95;0.50;;;-2.00;82.10;;;;;;5092307;28;20048;-71
2021/12/25 04:30:56;;;;;;;1.88;0.52;;;-2.10;81.70;;;;;;5092316;28;20052;-71
2021/12/25 04:50:08;;;;;;;1.20;0.35;;;-2.20;82.00;;;;;;5082803;28;20381;-70
2021/12/25 05:06:03;;;;;;;0.93;0.43;;;-2.30;82.40;;;;;;5096554;28;20147;-70
2021/12/25 05:08:29;;;;;;;1.25;0.70;;;-2.30;82.90;;;;;;5096719;28;20636;-70
2021/12/25 05:10:57;;;;;;;3.53;0.55;;;-2.30;82.80;;;;;;5096532;28;20042;-70
2021/12/25 05:13:22;;;;;;;1.27;0.65;;;-2.30;83.30;;;;;;5096937;28;20048;-70
2021/12/25 05:15:48;;;;;;;1.10;0.40;;;-2.40;84.00;;;;;;5096144;28;20051;-70
2021/12/25 05:18:14;;;;;;;2.50;0.63;;;-2.30;84.20;;;;;;5096827;28;20412;-70
2021/12/25 05:20:40;;;;;;;2.22;0.52;;;-2.40;84.60;;;;;;5095467;28;20040;-70
2021/12/25 05:23:05;;;;;;;0.65;0.40;;;-2.40;85.40;;;;;;5096852;28;20407;-70
2021/12/25 05:25:33;;;;;;;1.65;0.77;;;-2.50;86.00;;;;;;5095439;28;20051;-71
2021/12/25 05:27:59;;;;;;;1.08;0.40;;;-2.50;86.00;;;;;;5095280;28;20047;-70
2021/12/25 05:30:26;;;;;;;1.17;0.50;;;-2.60;86.40;;;;;;5095087;28;20548;-70
2021/12/25 05:32:52;;;;;;;1.80;0.52;;;-2.50;86.80;;;;;;5095029;28;20036;-70
2021/12/25 05:35:18;;;;;;;1.13;0.45;;;-2.60;86.90;;;;;;5094851;28;20104;-70
2021/12/25 05:37:43;;;;;;;0.93;0.50;;;-2.50;87.10;;;;;;5094267;28;20046;-70
2021/12/25 05:40:11;;;;;;;0.85;0.47;;;-2.60;87.30;;;;;;5096267;28;20040;-70
2021/12/25 05:42:37;;;;;;;1.70;0.55;;;-2.50;86.70;;;;;;5094661;28;20046;-70
2021/12/25 05:45:04;;;;;;;0.90;0.73;;;-2.50;86.30;;;;;;5095766;28;20044;-70
2021/12/25 05:47:30;;;;;;;3.58;1.13;;;-2.50;86.20;;;;;;5094197;28;20101;-70
2021/12/25 05:49:56;;;;;;;3.30;0.68;;;-2.70;87.30;;;;;;5095837;28;20083;-70
2021/12/25 05:52:21;;;;;;;3.45;0.70;;;-2.80;87.30;;;;;;5095700;28;20044;-70
2021/12/25 05:54:47;;;;;;;1.58;0.50;;;-2.60;86.70;;;;;;5094876;28;20105;-70
2021/12/25 05:57:13;;;;;;;1.55;0.70;;;-2.60;86.40;;;;;;5095399;28;20051;-70
2021/12/25 05:59:38;;;;;;;1.45;0.50;;;-2.70;87.40;;;;;;5096146;28;20047;-70
2021/12/25 06:02:04;;;;;;;2.22;0.47;;;-2.80;88.00;;;;;;5077726;28;20506;-70
2021/12/25 06:04:29;;;;;;;2.17;1.05;;;-2.80;88.10;;;;;;5095845;28;20047;-70
2021/12/25 06:06:55;;;;;;;3.92;0.57;;;-2.70;87.50;;;;;;5095196;28;20031;-70
2021/12/25 06:09:21;;;;;;;1.55;0.70;;;-2.70;87.90;;;;;;5094365;28;20471;-70
2021/12/25 06:11:47;;;;;;;2.70;0.52;;;-2.70;88.50;;;;;;5095332;28;20035;-70
2021/12/25 06:14:19;;;;;;;1.77;0.80;;;-2.70;88.10;;;;;;5077183;28;20036;-70
2021/12/25 06:16:45;;;;;;;2.30;0.57;;;-2.80;88.50;;;;;;5095155;28;20071;-70
2021/12/25 06:19:11;;;;;;;3.20;0.70;;;-2.70;89.30;;;;;;5095260;28;20040;-70
2021/12/25 06:21:37;;;;;;;0.60;0.45;;;-2.90;89.40;;;;;;5093864;28;20036;-70
2021/12/25 06:24:05;;;;;;;2.22;0.52;;;-2.90;89.70;;;;;;5095327;28;20119;-70
2021/12/25 06:26:32;;;;;;;1.77;0.60;;;-2.80;90.00;;;;;;5094695;28;20082;-70
2021/12/25 06:28:58;;;;;;;2.40;0.77;;;-2.80;89.80;;;;;;5094065;28;20044;-70
2021/12/25 06:31:24;;;;;;;1.13;0.50;;;-2.90;90.20;;;;;;5095503;28;20392;-70
2021/12/25 06:33:50;;;;;;;4.70;0.73;;;-2.90;90.30;;;;;;5093818;28;20515;-70
2021/12/25 06:36:16;;;;;;;3.20;0.60;;;-2.90;90.40;;;;;;5094610;28;20044;-70
2021/12/25 06:38:42;;;;;;;2.38;0.80;;;-2.90;90.00;;;;;;5095026;28;20036;-70
2021/12/25 06:41:10;;;;;;;1.30;0.70;;;-2.90;90.00;;;;;;5093509;28;20044;-70
2021/12/25 06:43:36;;;;;;;1.88;0.40;;;-2.90;90.10;;;;;;5094074;28;20047;-70
2021/12/25 06:46:03;;;;;;;2.00;0.60;;;-2.90;90.20;;;;;;5094215;28;20476;-71
2021/12/25 06:48:29;;;;;;;1.55;0.70;;;-2.90;90.50;;;;;;5094834;28;20103;-71
2021/12/25 06:50:55;;;;;;;0.93;0.40;;;-2.90;90.60;;;;;;5094916;28;20050;-71
2021/12/25 06:53:21;;;;;;;2.95;0.70;;;-2.80;90.60;;;;;;5095021;28;20036;-69
2021/12/25 06:55:47;;;;;;;2.08;0.60;;;-2.90;90.50;;;;;;5093559;28;20047;-69
2021/12/25 06:58:12;;;;;;;1.45;0.68;;;-2.90;90.70;;;;;;5093179;28;20052;-69
2021/12/25 07:00:38;;;;;;;3.00;1.17;;;-2.90;90.30;;;;;;5094367;28;20036;-69
2021/12/25 07:03:04;;;;;;;1.58;0.50;;;-3.00;90.10;;;;;;5094734;28;20044;-70
2021/12/25 07:05:30;;;;;;;3.35;0.60;;;-3.00;90.30;;;;;;5094766;28;20040;-70
2021/12/25 07:07:56;;;;;;;2.53;0.70;;;-2.90;90.00;;;;;;5094184;28;20043;-70
2021/12/25 07:10:22;;;;;;;1.50;1.35;;;-2.90;89.40;;;;;;5094342;28;20070;-70
2021/12/25 07:12:50;;;;;;;1.83;0.68;;;-2.90;90.00;;;;;;5093285;28;20047;-69
2021/12/25 07:15:16;;;;;;;3.75;0.73;;;-3.00;90.00;;;;;;5094431;28;20093;-70
2021/12/25 07:17:42;;;;;;;2.00;0.65;;;-3.00;90.50;;;;;;5092699;28;20036;-70
2021/12/25 07:20:09;;;;;;;5.78;0.95;;;-2.90;90.30;;;;;;5093414;28;20047;-70
2021/12/25 07:22:35;;;;;;;0.45;0.35;;;-2.90;90.10;;;;;;5093261;28;20407;-70
2021/12/25 07:25:00;;;;;;;3.95;0.75;;;-3.00;90.20;;;;;;5094118;28;20048;-70
2021/12/25 07:27:26;;;;;;;0.70;0.43;;;-3.00;90.40;;;;;;5093658;28;20035;-70
2021/12/25 07:29:52;;;;;;;2.63;0.80;;;-3.00;90.30;;;;;;5093901;28;20372;-70
2021/12/25 07:32:17;;;;;;;4.68;0.77;;;-2.90;90.20;;;;;;5075622;28;20447;-70
2021/12/25 07:34:46;;;;;;;0.82;0.50;;;-3.00;90.20;;;;;;5093037;28;20115;-70
2021/12/25 07:37:13;;;;;;;2.47;0.70;;;-3.00;90.40;;;;;;5093312;28;20040;-70
2021/12/25 07:39:39;;;;;;;2.88;0.73;;;-3.00;90.30;;;;;;5092700;28;20035;-69
2021/12/25 07:42:05;;;;;;;3.50;1.17;;;-3.00;90.00;;;;;;5092980;28;20042;-69
2021/12/25 07:44:31;;;;;;;1.30;0.50;;;-2.90;89.90;;;;;;5094190;28;20106;-70
2021/12/25 07:46:57;;;;;;;1.50;0.50;;;-2.90;89.90;;;;;;5092248;28;20387;-70
2021/12/25 07:49:22;;;;;;;1.52;0.63;;;-3.00;90.20;;;;;;5092789;28;20518;-70
2021/12/25 07:51:48;;;;;;;12.18;1.75;;;-2.90;90.00;;;;;;5093670;28;20400;-70
2021/12/25 07:54:14;;;;;;;1.90;1.00;;;-2.90;90.10;;;;;;5093483;28;20043;-70
2021/12/25 07:56:39;;;;;;;0.70;0.50;;;-3.00;90.30;;;;;;5091850;28;20051;-70
2021/12/25 07:59:05;;;;;;;1.20;0.47;;;-2.90;90.10;;;;;;5093477;28;20051;-71
2021/12/25 08:01:34;;;;;;;1.60;0.77;;;-2.90;89.90;;;;;;5094334;28;20077;-71
2021/12/25 08:04:01;;;;;;;1.90;0.60;;;-2.80;90.00;;;;;;5092241;28;20047;-71
2021/12/25 08:06:26;;;;;;;2.78;0.60;;;-2.90;90.10;;;;;;5093104;28;20044;-71
2021/12/25 08:08:55;;;;;;;2.90;0.80;;;-3.00;90.20;;;;;;5093550;28;20082;-70
2021/12/25 08:11:21;;;;;;;0.77;0.50;;;-2.80;90.00;;;;;;5092347;28;20058;-71
2021/12/25 08:13:46;;;;;;;2.88;0.90;;;-2.80;90.00;;;;;;5093575;28;20028;-71
2021/12/25 08:16:12;;;;;;;2.75;0.70;;;-2.90;89.90;;;;;;5093082;28;20483;-70
2021/12/25 08:18:37;;;;;;;2.92;0.70;;;-2.90;89.80;;;;;;5092108;28;20506;-70
2021/12/25 08:21:04;;;;;;;1.35;0.85;;;-2.90;90.10;;;;;;5092143;28;20091;-71
2021/12/25 08:23:32;;;;;;;2.05;0.70;;;-2.90;90.00;;;;;;5093198;28;20044;-70
2021/12/25 08:25:59;;;;;;;1.55;0.85;;;-2.90;90.10;;;;;;5092851;28;20044;-71
2021/12/25 08:28:24;;;;;;;3.28;0.80;;;-3.00;90.20;;;;;;5075246;28;20051;-71
2021/12/25 08:30:50;;;;;;;1.58;0.88;;;-2.90;90.10;;;;;;5093123;28;20479;-71
2021/12/25 08:33:16;;;;;;;1.38;0.70;;;-3.00;90.50;;;;;;5093368;28;20036;-71
2021/12/25 08:35:41;;;;;;;1.70;0.68;;;-3.00;90.40;;;;;;5093762;28;20148;-71
2021/12/25 08:38:07;;;;;;;11.45;2.58;;;-2.90;90.50;;;;;;5097146;28;20047;-71
2021/12/25 08:40:33;;;;;;;6.85;2.88;;;-2.90;90.20;;;;;;5095942;28;20036;-71
2021/12/25 08:43:01;;;;;;;4.88;0.77;;;-2.90;90.10;;;;;;5097469;28;20036;-71
2021/12/25 08:48:24;;;;;;;4.15;1.15;;;-2.70;90.00;;;;;;5096013;28;20036;-71
2021/12/25 08:50:54;;;;;;;4.05;0.77;;;-2.70;89.40;;;;;;5097154;28;20480;-70
2021/12/25 08:53:22;;;;;;;1.30;0.50;;;-2.70;88.90;;;;;;5095948;28;20468;-70
2021/12/25 08:55:50;;;;;;;4.15;0.60;;;-2.70;89.30;;;;;;5096771;28;20115;-71
2021/12/25 08:58:16;;;;;;;4.45;0.73;;;-2.70;88.90;;;;;;5097223;28;20035;-71
2021/12/25 09:00:43;;;;;;;3.22;0.70;;;-2.60;88.90;;;;;;5097227;28;20101;-71
2021/12/25 09:03:09;;;;;;;3.08;0.70;;;-2.60;88.50;;;;;;5095569;28;20040;-70
2021/12/25 09:05:36;;;;;;;4.00;0.63;;;-2.60;88.60;;;;;;5096742;28;20058;-70
2021/12/25 09:08:02;;;;;;;1.23;0.52;;;-2.60;88.50;;;;;;5096672;28;20040;-69
2021/12/25 09:10:29;;;;;;;1.25;0.80;;;-2.40;87.70;;;;;;5095545;28;20047;-69
2021/12/25 09:12:56;;;;;;;3.72;1.00;;;-2.40;88.00;;;;;;5096638;28;20032;-70
2021/12/25 09:15:22;;;;;;;4.43;0.93;;;-2.40;87.90;;;;;;5096484;28;20040;-70
2021/12/25 09:17:48;;;;;;;1.95;0.63;;;-2.50;88.10;;;;;;5096107;28;20072;-70
2021/12/25 09:20:16;;;;;;;5.55;2.45;;;-2.40;88.50;;;;;;5096490;28;20536;-70
2021/12/25 09:22:42;;;;;;;1.75;0.70;;;-2.40;88.30;;;;;;5097491;28;20052;-71
2021/12/25 09:25:08;;;;;;;2.78;0.77;;;-2.30;87.30;;;;;;5096446;28;20040;-70
2021/12/25 09:27:34;;;;;;;3.53;0.80;;;-2.20;87.30;;;;;;5094634;28;20113;-70
2021/12/25 09:30:00;;;;;;;2.25;0.85;;;-2.40;88.00;;;;;;5096708;28;20082;-71
2021/12/25 09:32:26;;;;;;;2.08;0.95;;;-2.40;88.40;;;;;;5096563;28;20480;-71
2021/12/25 09:34:51;;;;;;;1.80;0.65;;;-2.30;87.70;;;;;;5096468;28;20081;-71
2021/12/25 09:37:20;;;;;;;2.25;0.75;;;-2.30;87.40;;;;;;5077417;28;20051;-71
2021/12/25 09:39:45;;;;;;;3.60;0.68;;;-2.30;87.80;;;;;;5094696;28;20442;-70
2021/12/25 09:42:11;;;;;;;3.00;1.00;;;-2.30;88.40;;;;;;5106626;28;20032;-70
2021/12/25 09:44:40;;;;;;;1.63;0.57;;;-2.30;88.50;;;;;;5103342;28;20071;-70
2021/12/25 09:47:06;;;;;;;3.97;1.00;;;-2.20;88.10;;;;;;5102787;28;20060;-71
2021/12/25 09:49:32;;;;;;;1.63;0.70;;;-2.20;87.10;;;;;;5101454;28;20079;-70
2021/12/25 09:51:58;;;;;;;1.73;0.70;;;-2.10;87.30;;;;;;5094259;28;20108;-70
2021/12/25 09:54:26;;;;;;;4.78;0.70;;;-2.20;87.20;;;;;;5094711;28;20093;-71
2021/12/25 09:56:56;;;;;;;3.58;0.90;;;-2.10;87.20;;;;;;5095383;28;20036;-71
2021/12/25 09:59:22;;;;;;;1.45;0.70;;;-2.20;87.10;;;;;;5095679;28;20119;-70
2021/12/25 10:01:51;;;;;;;4.57;2.17;;;-2.00;86.20;;;;;;5095470;28;20079;-70
2021/12/25 10:04:45;;;;;;;2.38;0.57;;;-2.10;86.20;;;;;;5095267;28;20028;-71
2021/12/25 10:07:30;;;;;;;;;;;-2.20;87.20;;;;;;5094208;28;20052;-71
2021/12/25 10:09:59;;;;;;;2.22;0.55;;;-2.10;87.30;;;;;;5094351;28;19916;-71
2021/12/25 10:12:40;;;;;;;2.03;0.90;;;-2.00;87.10;;;;;;5094064;28;20044;-70
2021/12/25 10:15:13;;;;;;;4.97;0.90;;;-2.10;87.40;;;;;;5099752;28;20039;-70
2021/12/25 10:17:51;;;;;;;2.10;0.70;;;-2.00;86.80;;;;;;5075768;28;20433;-70
2021/12/25 10:20:29;;;;;;;2.13;0.98;;;-2.10;87.50;;;;;;5095190;28;20114;-70
2021/12/25 10:23:01;;;;;;;4.35;1.10;;;-2.10;87.60;;;;;;5093972;28;20492;-70
2021/12/25 10:25:38;;;;;;;4.72;1.02;;;-2.00;87.30;;;;;;5094387;28;20123;-70
2021/12/25 10:28:07;;;;;;;2.88;0.88;;;-2.00;88.00;;;;;;5094824;28;20043;-70
2021/12/25 10:31:00;;;;;;;1.45;0.85;;;-2.00;87.40;;;;;;5094284;28;20518;-70
2021/12/25 10:33:41;;;;;;;3.97;1.55;;;-1.90;87.40;;;;;;5095277;28;20047;-70
2021/12/25 10:36:29;;;;;;;5.43;0.90;;;-2.00;87.90;;;;;;5093848;28;20136;-69
2021/12/25 10:39:05;;;;;;;1.67;0.95;;;-1.90;87.10;;;;;;5093136;28;20048;-69
2021/12/25 10:41:31;;;;;;;3.95;1.02;;;-1.90;87.80;;;;;;5094805;28;20047;-69
2021/12/25 10:44:33;;;;;;;1.67;0.93;;;-1.90;87.70;;;;;;5093711;28;20112;-69
2021/12/25 10:47:03;;;;;;;2.67;1.20;;;-1.80;87.40;;;;;;5051972;28;20045;-69
2021/12/25 10:49:33;;;;;;;6.43;1.02;;;-1.90;88.30;;;;;;5087814;28;20159;-69
2021/12/25 10:52:09;;;;;;;2.95;1.10;;;-1.80;88.40;;;;;;5095174;28;20036;-69
2021/12/25 10:54:42;;;;;;;2.00;0.70;;;-1.80;88.80;;;;;;5094793;28;20067;-69
2021/12/25 10:57:08;;;;;;;3.90;0.93;;;-1.70;88.70;;;;;;5100365;28;20035;-70
2021/12/25 10:59:48;;;;;;;5.35;0.85;;;-1.70;88.60;;;;;;5104213;28;20092;-69
2021/12/25 11:02:37;;;;;;;3.17;0.70;;;-1.60;87.70;;;;;;5113937;28;20047;-69
2021/12/25 11:05:15;;;;;;;6.10;1.75;;;-1.60;87.10;;;;;;5098117;28;20507;-70
2021/12/25 11:07:40;;;;;;;2.47;0.88;;;-1.60;86.50;;;;;;5097676;28;20101;-69
2021/12/25 11:10:13;;;;;;;0.90;0.60;;;-1.50;86.40;;;;;;5096849;28;20048;-70
2021/12/25 11:12:39;;;;;;;2.20;0.88;;;-1.60;87.30;;;;;;5113693;28;20048;-69
2021/12/25 11:15:15;;;;;;;2.75;1.08;;;-1.50;86.70;;;;;;5100055;28;20048;-70
2021/12/25 11:17:43;;;;;;;5.28;1.75;;;-1.50;87.40;;;;;;5113012;28;20416;-69
2021/12/25 11:20:17;;;;;;;3.10;1.10;;;-1.50;88.20;;;;;;5113492;28;20036;-69
2021/12/25 11:22:48;;;;;;;5.25;1.13;;;-1.50;87.40;;;;;;5114528;28;20063;-70
2021/12/25 11:25:20;;;;;;;4.13;0.93;;;-1.40;87.00;;;;;;5113379;28;20040;-70
2021/12/25 11:27:47;;;;;;;1.75;0.98;;;-1.40;87.30;;;;;;5114106;28;20038;-70
2021/12/25 11:30:13;;;;;;;3.13;1.10;;;-1.40;86.80;;;;;;5114010;28;20039;-70
2021/12/25 11:32:39;;;;;;;3.33;0.68;;;-1.30;86.20;;;;;;5114463;28;20107;-70
2021/12/25 11:35:05;;;;;;;3.10;0.90;;;-1.30;85.20;;;;;;5113822;28;20472;-70
2021/12/25 11:37:31;;;;;;;2.13;0.90;;;-1.30;85.20;;;;;;5113807;28;20054;-70
2021/12/25 11:39:58;;;;;;;2.78;0.88;;;-1.20;84.80;;;;;;5113475;28;20363;-70
2021/12/25 11:42:26;;;;;;;1.38;0.75;;;-1.20;84.00;;;;;;5113876;28;20050;-70
2021/12/25 11:44:54;;;;;;;2.80;1.23;;;-1.20;85.10;;;;;;5113956;28;20044;-70
2021/12/25 11:47:39;;;;;;;1.17;0.73;;;-1.20;85.70;;;;;;5107556;28;20032;-70
2021/12/25 11:50:40;;;;;;;1.80;1.20;;;-1.10;84.80;;;;;;5108016;28;20035;-70
2021/12/25 11:58:44;;;;;;;2.50;0.70;;;-1.00;83.70;;;;;;5098293;28;20052;-70
2021/12/25 12:01:38;;;;;;;3.72;0.90;;;-1.10;83.60;;;;;;5113849;28;20040;-70
2021/12/25 12:04:10;;;;;;;;;;;-1.10;83.80;;;;;;5112912;28;20036;-70
2021/12/25 12:06:44;;;;;;;2.20;1.10;;;-1.10;84.20;;;;;;5113269;28;19927;-70
2021/12/25 12:09:16;;;;;;;3.40;1.30;;;-1.20;84.10;;;;;;5111796;28;20051;-69
2021/12/25 12:11:46;;;;;;;3.20;1.02;;;-1.00;83.10;;;;;;5111614;28;20046;-69
2021/12/25 12:14:21;;;;;;;1.48;0.70;;;-1.00;83.70;;;;;;5112209;28;20502;-70
2021/12/25 12:16:49;;;;;;;2.80;1.20;;;-1.00;84.00;;;;;;5113207;28;20044;-70
2021/12/25 12:19:39;;;;;;;1.10;0.70;;;-1.00;83.10;;;;;;5113808;28;20046;-69
2021/12/25 12:22:16;;;;;;;1.65;0.73;;;-0.90;82.70;;;;;;5104237;28;20090;-69
2021/12/25 12:25:14;;;;;;;2.65;0.90;;;-1.00;83.20;;;;;;5112131;28;20083;-70
2021/12/25 12:27:46;;;;;;;2.15;0.82;;;-0.80;82.50;;;;;;5101911;28;20040;-69
2021/12/25 12:30:34;;;;;;;3.67;0.75;;;-0.90;81.60;;;;;;5095740;28;20068;-69
2021/12/25 12:33:11;;;;;;;2.45;0.90;;;-0.90;83.00;;;;;;5100769;28;20093;-69
2021/12/25 12:35:40;;;;;;;4.60;0.85;;;-0.90;82.50;;;;;;5104946;28;20055;-69
2021/12/25 12:38:44;;;;;;;4.70;1.80;;;-0.90;81.80;;;;;;5112761;28;20075;-69
2021/12/25 12:41:27;;;;;;;7.68;0.95;;;-0.80;82.10;;;;;;5087206;28;20052;-69
2021/12/25 12:44:04;;;;;;;1.98;0.70;;;-0.90;82.50;;;;;;5109748;28;20168;-68
2021/12/25 12:46:48;;;;;;;3.15;1.17;;;-0.90;82.90;;;;;;5112854;28;20046;-69
2021/12/25 12:49:16;;;;;;;;;;;-0.90;83.20;;;;;;5091210;28;20040;-69
2021/12/25 12:51:42;;;;;;;3.25;0.80;;;-0.80;83.00;;;;;;5103556;28;20006;-69
2021/12/25 12:54:08;;;;;;;3.22;1.23;;;-0.90;82.50;;;;;;5113255;28;20490;-69
2021/12/25 12:56:34;;;;;;;3.47;1.98;;;-0.80;81.90;;;;;;5111181;28;20126;-69
2021/12/25 12:59:00;;;;;;;1.98;0.95;;;-0.70;82.00;;;;;;5112856;28;20059;-69
2021/12/25 13:01:27;;;;;;;3.47;0.93;;;-0.70;82.00;;;;;;5113333;28;20468;-69
2021/12/25 13:04:00;;;;;;;2.15;1.10;;;-0.70;80.10;;;;;;5113456;28;20433;-69
2021/12/25 13:06:28;;;;;;;1.05;0.80;;;-0.80;79.90;;;;;;5112834;28;20051;-69
2021/12/25 13:08:54;;;;;;;3.13;1.33;;;-0.80;81.00;;;;;;5111477;28;20047;-69
2021/12/25 13:11:26;;;;;;;1.83;0.80;;;-0.80;80.60;;;;;;5112825;28;20513;-69
2021/12/25 13:13:57;;;;;;;3.35;1.05;;;-0.70;79.50;;;;;;5111597;28;20047;-69
2021/12/25 13:16:32;;;;;;;2.53;1.13;;;-0.70;79.80;;;;;;5112504;28;20078;-69
2021/12/25 13:19:03;;;;;;;1.58;0.85;;;-0.80;80.50;;;;;;5111728;28;20047;-69
2021/12/25 13:21:30;;;;;;;2.35;1.15;;;-0.80;79.60;;;;;;5112380;28;20085;-69
2021/12/25 13:24:13;;;;;;;1.90;0.80;;;-0.80;79.40;;;;;;5116682;28;20044;-70
2021/12/25 13:26:43;;;;;;;3.17;1.13;;;-0.80;79.80;;;;;;5109718;28;20472;-69
2021/12/25 13:29:17;;;;;;;3.22;1.30;;;-0.60;79.20;;;;;;5108346;28;20063;-69
2021/12/25 13:31:44;;;;;;;4.53;0.93;;;-0.80;80.00;;;;;;5116699;28;20108;-69
2021/12/25 13:34:15;;;;;;;3.95;1.15;;;-0.80;80.60;;;;;;5116433;27;20043;-69
2021/12/25 13:36:46;;;;;;;4.68;1.63;;;-0.70;80.10;;;;;;5114405;28;20092;-69
2021/12/25 13:39:16;;;;;;;2.22;1.23;;;-0.70;80.10;;;;;;5116637;28;20035;-69
2021/12/25 13:41:53;;;;;;;2.35;0.98;;;-0.70;80.00;;;;;;5116479;28;20035;-68
2021/12/25 13:44:29;;;;;;;1.90;1.00;;;-0.60;80.20;;;;;;5116672;28;20035;-69
2021/12/25 13:47:04;;;;;;;2.75;1.15;;;-0.60;79.20;;;;;;5115836;28;20040;-69
2021/12/25 13:49:54;;;;;;;2.80;2.25;;;-0.60;79.10;;;;;;5114304;28;20371;-70
2021/12/25 13:52:20;;;;;;;3.05;1.05;;;-0.70;77.80;;;;;;5099834;28;20535;-69
2021/12/25 13:55:07;;;;;;;1.90;0.90;;;-0.70;77.50;;;;;;5114407;28;20078;-69
2021/12/25 13:57:34;;;;;;;4.93;1.38;;;-0.70;77.70;;;;;;5099881;27;20036;-69
2021/12/25 14:00:08;;;;;;;3.80;0.90;;;-0.70;77.40;;;;;;5115673;28;20040;-69
2021/12/25 14:02:33;;;;;;;;;;;-0.70;77.20;;;;;;5114991;28;20088;-69
2021/12/25 14:04:59;;;;;;;3.83;1.13;;;-0.80;78.00;;;;;;5115642;28;19919;-69
2021/12/25 14:07:27;;;;;;;3.30;0.98;;;-0.80;78.40;;;;;;5115809;28;20036;-68
2021/12/25 14:10:01;;;;;;;3.05;1.33;;;-0.70;78.20;;;;;;5115637;28;20395;-69
2021/12/25 14:12:28;;;;;;;3.53;1.30;;;-0.70;78.10;;;;;;5114055;28;20071;-69
2021/12/25 14:14:55;;;;;;;4.00;1.52;;;-0.70;78.50;;;;;;5115596;28;20047;-69
2021/12/25 14:17:22;;;;;;;4.32;1.50;;;-0.80;79.20;;;;;;5115046;28;20039;-69